Terminal Aerodrome Forecast
Issued by NWS Twin Cities, MN

Home | Current Version | Previous Version | Text Only | Print | Product List | Glossary On
Versions: 1 2 3 4 5 6 7 8 9 10 11 12 13 14 15 16 17 18
113
FTUS43 KMPX 221720
TAFSTC
TAF
KSTC 221720Z 2218/2318 VRB04KT P6SM FEW250
     FM230200 00000KT P6SM BKN250
     FM231600 12008KT P6SM VCSH SCT040 BKN110=

USA.gov is the U.S. government's official web portal to all federal, state and local government web resources and services.